Time;durP1;ratioP1;P1;durP2;ratioP2;P2;SDS_P1;SDS_P2;PMS_P1;PMS_P2;Temp;Humidity;BMP_temperature;BMP_pressure;BME280_temperature;BME280_humidity;BME280_pressure;Samples;Min_cycle;Max_cycle;Signal;HPM_P1;HPM_P2
2022/07/10 00:00:07;;;;;;;2.78;0.82;;;18.60;99.90;;;;;;4974148;28;20251;-57
2022/07/10 00:02:33;;;;;;;2.30;0.98;;;18.60;99.90;;;;;;4974021;28;20170;-58
2022/07/10 00:04:59;;;;;;;0.65;0.60;;;18.50;99.90;;;;;;4973946;28;20255;-57
2022/07/10 00:07:25;;;;;;;2.33;0.70;;;18.40;99.90;;;;;;4973792;28;20234;-57
2022/07/10 00:09:50;;;;;;;2.15;1.02;;;18.50;99.90;;;;;;4973879;28;20191;-57
2022/07/10 00:12:16;;;;;;;4.35;0.75;;;18.40;99.90;;;;;;4974088;28;20599;-57
2022/07/10 00:14:42;;;;;;;1.80;0.75;;;18.40;99.90;;;;;;4973558;28;20179;-57
2022/07/10 00:17:08;;;;;;;2.88;0.80;;;18.30;99.90;;;;;;4973731;28;20664;-57
2022/07/10 00:19:34;;;;;;;3.80;0.80;;;18.20;99.90;;;;;;4973814;28;20556;-57
2022/07/10 00:22:00;;;;;;;3.97;0.70;;;18.10;99.90;;;;;;4973631;28;20583;-57
2022/07/10 00:24:26;;;;;;;2.13;0.90;;;18.10;99.90;;;;;;4973586;28;20184;-57
2022/07/10 00:26:52;;;;;;;0.73;0.63;;;18.00;99.90;;;;;;4973591;28;20191;-57
2022/07/10 00:29:18;;;;;;;1.77;0.80;;;18.00;99.90;;;;;;4973519;28;20673;-57
2022/07/10 00:31:44;;;;;;;0.95;0.60;;;18.00;99.90;;;;;;4973184;28;20215;-57
2022/07/10 00:34:11;;;;;;;1.02;0.70;;;18.00;99.90;;;;;;4973421;28;20211;-58
2022/07/10 00:36:37;;;;;;;1.67;0.60;;;17.90;99.90;;;;;;4973258;28;20176;-58
2022/07/10 00:39:03;;;;;;;3.00;0.80;;;17.90;99.90;;;;;;4973619;28;20262;-58
2022/07/10 00:41:29;;;;;;;1.88;0.98;;;17.80;99.90;;;;;;4973683;28;20184;-58
2022/07/10 00:43:57;;;;;;;3.70;0.75;;;17.80;99.90;;;;;;4973380;28;20574;-57
2022/07/10 00:46:25;;;;;;;5.00;1.00;;;17.70;99.90;;;;;;4973206;28;20219;-57
2022/07/10 00:48:51;;;;;;;1.30;0.80;;;17.60;99.90;;;;;;4973183;28;20187;-57
2022/07/10 00:51:22;;;;;;;2.30;0.80;;;17.60;99.90;;;;;;4973119;28;20189;-58
2022/07/10 00:53:49;;;;;;;0.82;0.60;;;17.50;99.90;;;;;;4973099;28;20168;-58
2022/07/10 00:56:21;;;;;;;3.10;0.73;;;17.40;99.90;;;;;;4973152;28;20199;-58
2022/07/10 00:58:49;;;;;;;1.05;0.80;;;17.40;99.90;;;;;;4972900;28;20199;-58
2022/07/10 01:01:16;;;;;;;3.88;0.90;;;17.40;99.90;;;;;;4972937;28;20190;-57
2022/07/10 01:03:43;;;;;;;1.45;0.70;;;17.40;99.90;;;;;;4972844;28;20274;-57
2022/07/10 01:06:09;;;;;;;1.85;0.70;;;17.20;99.90;;;;;;4972801;28;20167;-57
2022/07/10 01:08:36;;;;;;;0.80;0.60;;;17.20;99.90;;;;;;4972847;28;20698;-57
2022/07/10 01:11:02;;;;;;;1.52;0.80;;;17.10;99.90;;;;;;4972876;28;20172;-57
2022/07/10 01:13:29;;;;;;;0.70;0.60;;;17.10;99.90;;;;;;4972933;28;20172;-57
2022/07/10 01:15:56;;;;;;;1.90;0.70;;;17.10;99.90;;;;;;4972580;28;20260;-57
2022/07/10 01:18:22;;;;;;;2.95;0.73;;;17.00;99.90;;;;;;4972639;28;20224;-57
2022/07/10 01:20:53;;;;;;;1.17;0.80;;;17.00;99.90;;;;;;4972604;28;20183;-57
2022/07/10 01:23:19;;;;;;;1.00;0.80;;;17.00;99.90;;;;;;4972571;28;20176;-57
2022/07/10 01:25:45;;;;;;;1.17;0.80;;;17.00;99.90;;;;;;4972163;28;20188;-58
2022/07/10 01:28:11;;;;;;;2.80;0.90;;;17.00;99.90;;;;;;4972507;28;20183;-57
2022/07/10 01:30:37;;;;;;;1.30;0.90;;;17.00;99.90;;;;;;4972588;28;20183;-57
2022/07/10 01:33:03;;;;;;;0.98;0.70;;;17.00;99.90;;;;;;4954952;28;20223;-57
2022/07/10 01:35:29;;;;;;;1.77;0.88;;;16.90;99.90;;;;;;4972526;28;20223;-57
2022/07/10 01:37:55;;;;;;;1.77;0.82;;;16.80;99.90;;;;;;4972290;28;20246;-57
2022/07/10 01:40:21;;;;;;;1.45;0.80;;;16.80;99.90;;;;;;4972458;28;20176;-57
2022/07/10 01:42:47;;;;;;;4.00;0.95;;;16.70;99.90;;;;;;4972412;28;20168;-57
2022/07/10 01:45:16;;;;;;;4.03;0.77;;;16.70;99.90;;;;;;4972833;28;20238;-58
2022/07/10 01:47:43;;;;;;;2.45;0.95;;;16.70;99.90;;;;;;4972480;28;20180;-57
2022/07/10 01:50:09;;;;;;;3.40;0.93;;;16.70;99.90;;;;;;4972447;28;20203;-58
2022/07/10 01:52:35;;;;;;;1.73;1.00;;;16.70;99.90;;;;;;4972306;28;20202;-57
2022/07/10 01:55:03;;;;;;;2.80;1.08;;;16.60;99.90;;;;;;4972254;28;20183;-57
2022/07/10 01:57:29;;;;;;;2.60;1.08;;;16.60;99.90;;;;;;4972154;28;20175;-57
2022/07/10 01:59:55;;;;;;;1.17;0.98;;;16.50;99.90;;;;;;4972253;28;20555;-57
2022/07/10 02:02:21;;;;;;;1.00;0.90;;;16.40;99.90;;;;;;4972293;28;20172;-58
2022/07/10 02:04:47;;;;;;;2.90;0.90;;;16.40;99.90;;;;;;4972169;28;20196;-57
2022/07/10 02:07:15;;;;;;;1.35;0.90;;;16.40;99.90;;;;;;4972183;28;20194;-57
2022/07/10 02:09:42;;;;;;;0.93;0.90;;;16.40;99.90;;;;;;4972103;28;20172;-57
2022/07/10 02:12:10;;;;;;;1.10;1.00;;;16.10;99.90;;;;;;4972146;28;20267;-57
2022/07/10 02:14:36;;;;;;;2.05;1.10;;;16.40;99.90;;;;;;4971988;28;20176;-57
2022/07/10 02:17:03;;;;;;;3.40;1.00;;;16.40;99.90;;;;;;4972045;28;20202;-57
2022/07/10 02:19:29;;;;;;;1.98;1.10;;;16.30;99.90;;;;;;4972015;28;20210;-57
2022/07/10 02:21:56;;;;;;;1.20;1.10;;;16.20;99.90;;;;;;4972004;28;20175;-56
2022/07/10 02:24:22;;;;;;;3.10;1.15;;;16.10;99.90;;;;;;4972016;28;20252;-57
2022/07/10 02:26:49;;;;;;;3.15;1.10;;;16.20;99.90;;;;;;4971861;28;20176;-57
2022/07/10 02:29:15;;;;;;;4.97;1.20;;;16.20;99.90;;;;;;4972128;28;20283;-57
2022/07/10 02:31:41;;;;;;;2.75;1.25;;;16.10;99.90;;;;;;4971804;28;20202;-57
2022/07/10 02:34:08;;;;;;;1.40;1.10;;;16.10;99.90;;;;;;4971901;28;20178;-57
2022/07/10 02:36:34;;;;;;;1.85;1.30;;;16.00;99.90;;;;;;4971833;28;20164;-57
2022/07/10 02:39:01;;;;;;;1.58;1.10;;;16.00;99.90;;;;;;4975105;28;20701;-57
2022/07/10 02:41:27;;;;;;;7.97;1.25;;;15.90;99.90;;;;;;4975442;28;20194;-57
2022/07/10 02:43:53;;;;;;;2.22;1.20;;;15.80;99.90;;;;;;4975332;28;20180;-57
2022/07/10 02:46:19;;;;;;;3.20;1.38;;;15.80;99.90;;;;;;4975405;28;20307;-57
2022/07/10 02:48:45;;;;;;;1.90;1.10;;;15.70;99.90;;;;;;4975513;28;20179;-57
2022/07/10 02:51:11;;;;;;;1.40;1.17;;;15.70;99.90;;;;;;4975268;28;20535;-57
2022/07/10 02:53:37;;;;;;;1.63;1.20;;;15.60;99.90;;;;;;4975176;28;20729;-57
2022/07/10 02:56:03;;;;;;;1.40;1.27;;;15.60;99.90;;;;;;4975221;28;20172;-57
2022/07/10 02:58:29;;;;;;;2.00;1.70;;;15.70;99.90;;;;;;4975172;28;20560;-57
2022/07/10 03:00:55;;;;;;;3.30;1.40;;;15.60;99.90;;;;;;4975238;28;20164;-58
2022/07/10 03:03:21;;;;;;;2.20;1.60;;;15.60;99.90;;;;;;4975242;28;20175;-57
2022/07/10 03:05:47;;;;;;;2.00;1.40;;;15.60;99.90;;;;;;4975072;28;20179;-57
2022/07/10 03:08:13;;;;;;;1.30;1.20;;;15.70;99.90;;;;;;4975009;28;20180;-57
2022/07/10 03:10:40;;;;;;;1.50;1.40;;;15.60;99.90;;;;;;4974915;28;20172;-57
2022/07/10 03:13:07;;;;;;;2.58;1.50;;;15.50;99.90;;;;;;4974934;28;20709;-57
2022/07/10 03:15:32;;;;;;;2.70;1.98;;;15.40;99.90;;;;;;4975003;28;20168;-57
2022/07/10 03:17:58;;;;;;;1.98;1.38;;;15.40;99.90;;;;;;4974696;28;20250;-58
2022/07/10 03:20:24;;;;;;;2.20;1.50;;;15.30;99.90;;;;;;4974859;28;20172;-57
2022/07/10 03:22:50;;;;;;;4.85;1.90;;;15.30;99.90;;;;;;4974721;28;20259;-57
2022/07/10 03:25:17;;;;;;;1.88;1.63;;;15.30;99.90;;;;;;4974719;28;20267;-57
2022/07/10 03:27:43;;;;;;;2.50;1.85;;;15.30;99.90;;;;;;4974747;28;20219;-57
2022/07/10 03:30:09;;;;;;;2.08;1.63;;;15.20;99.90;;;;;;4974654;28;20259;-58
2022/07/10 03:32:35;;;;;;;3.05;1.75;;;15.20;99.90;;;;;;4974463;28;20234;-58
2022/07/10 03:35:01;;;;;;;1.98;1.77;;;15.20;99.90;;;;;;4974575;28;20179;-57
2022/07/10 03:37:28;;;;;;;3.05;1.90;;;15.20;99.90;;;;;;4974513;28;20226;-58
2022/07/10 03:39:53;;;;;;;2.55;1.77;;;15.10;99.90;;;;;;4974476;28;20647;-58
2022/07/10 03:42:20;;;;;;;3.08;1.60;;;15.10;99.90;;;;;;4974493;28;20180;-57
2022/07/10 03:44:45;;;;;;;3.42;2.00;;;15.10;99.90;;;;;;4974424;28;20183;-58
2022/07/10 03:47:12;;;;;;;3.72;2.00;;;15.00;99.90;;;;;;4974382;28;20211;-57
2022/07/10 03:49:39;;;;;;;3.28;1.95;;;15.00;99.90;;;;;;4973720;28;20171;-57
2022/07/10 03:52:05;;;;;;;2.33;2.08;;;15.00;99.90;;;;;;4974263;28;20269;-57
2022/07/10 03:54:31;;;;;;;2.55;1.80;;;15.10;99.90;;;;;;4974051;28;20196;-58
2022/07/10 03:59:43;;;;;;;2.92;2.05;;;15.10;99.90;;;;;;4974141;28;20533;-57
2022/07/10 04:02:08;;;;;;;4.57;1.92;;;15.20;99.90;;;;;;4974456;28;20658;-57
2022/07/10 04:04:35;;;;;;;1.98;1.65;;;15.20;99.90;;;;;;4974126;28;20175;-58
2022/07/10 04:07:01;;;;;;;2.80;2.00;;;15.20;99.90;;;;;;4973903;28;20168;-57
2022/07/10 04:09:27;;;;;;;3.13;2.08;;;15.20;99.90;;;;;;4974016;28;20408;-58
2022/07/10 04:11:52;;;;;;;4.95;2.08;;;15.20;99.90;;;;;;4973874;28;20172;-58
2022/07/10 04:14:18;;;;;;;2.47;1.70;;;15.10;99.90;;;;;;4973884;28;20176;-59
2022/07/10 04:16:44;;;;;;;2.35;1.98;;;15.10;99.90;;;;;;4973754;28;20530;-57
2022/07/10 04:19:10;;;;;;;3.40;2.30;;;15.00;99.90;;;;;;4973693;28;20211;-57
2022/07/10 04:21:37;;;;;;;3.13;2.25;;;15.00;99.90;;;;;;4973807;28;20535;-57
2022/07/10 04:24:03;;;;;;;3.85;2.30;;;15.00;99.90;;;;;;4973870;28;20206;-57
2022/07/10 04:26:29;;;;;;;3.63;2.00;;;15.00;99.90;;;;;;4973561;28;20179;-57
2022/07/10 04:28:55;;;;;;;3.42;2.13;;;15.00;99.90;;;;;;4973631;28;20172;-57
2022/07/10 04:31:21;;;;;;;3.75;2.25;;;15.00;99.90;;;;;;4973548;28;20412;-58
2022/07/10 04:33:48;;;;;;;2.35;2.08;;;15.00;99.90;;;;;;4973437;28;20278;-57
2022/07/10 04:36:14;;;;;;;3.55;2.72;;;15.00;99.90;;;;;;4973322;28;20184;-58
2022/07/10 04:38:58;;;;;;;6.90;3.03;;;15.00;99.90;;;;;;4973040;28;20219;-57
2022/07/10 04:41:24;;;;;;;2.40;1.98;;;15.00;99.90;;;;;;4973261;28;20174;-58
2022/07/10 04:43:50;;;;;;;3.70;2.70;;;15.00;99.90;;;;;;4973428;28;20172;-58
2022/07/10 04:46:16;;;;;;;3.03;2.35;;;15.10;99.90;;;;;;4971960;28;20765;-57
2022/07/10 04:48:41;;;;;;;4.43;2.70;;;15.10;99.90;;;;;;4973211;28;20207;-57
2022/07/10 04:51:08;;;;;;;4.95;3.05;;;15.20;99.90;;;;;;4973417;28;20176;-57
2022/07/10 04:53:34;;;;;;;3.35;2.67;;;15.20;99.90;;;;;;4973377;28;20262;-57
2022/07/10 04:56:02;;;;;;;3.53;2.78;;;15.30;99.90;;;;;;4973308;28;20758;-57
2022/07/10 04:58:28;;;;;;;4.80;2.90;;;15.30;99.90;;;;;;4972889;28;20246;-58
2022/07/10 05:00:54;;;;;;;3.58;3.08;;;15.30;99.90;;;;;;4971994;28;20186;-57
2022/07/10 05:03:20;;;;;;;5.22;2.90;;;15.40;99.90;;;;;;4972922;28;20258;-57
2022/07/10 05:05:46;;;;;;;4.93;3.58;;;15.40;99.90;;;;;;4973021;28;20227;-57
2022/07/10 05:08:11;;;;;;;5.82;3.65;;;15.40;99.90;;;;;;4972881;28;20789;-57
2022/07/10 05:10:37;;;;;;;7.93;3.78;;;15.40;99.90;;;;;;4972848;28;20223;-57
2022/07/10 05:13:03;;;;;;;4.72;3.10;;;15.50;99.90;;;;;;4972743;28;20274;-58
2022/07/10 05:15:29;;;;;;;5.88;3.55;;;15.60;99.90;;;;;;4972761;28;20172;-57
2022/07/10 05:17:55;;;;;;;5.53;3.30;;;15.60;99.90;;;;;;4971392;28;20246;-57
2022/07/10 05:20:20;;;;;;;6.32;4.00;;;15.60;99.90;;;;;;4972640;28;20176;-58
2022/07/10 05:22:46;;;;;;;7.28;4.22;;;15.60;99.90;;;;;;4972564;28;20172;-57
2022/07/10 05:25:12;;;;;;;10.25;4.53;;;15.60;99.90;;;;;;4972636;28;20659;-57
2022/07/10 05:27:38;;;;;;;6.95;4.40;;;15.60;99.90;;;;;;4972578;28;20192;-56
2022/07/10 05:30:04;;;;;;;6.97;4.40;;;15.60;99.90;;;;;;4972470;28;20187;-57
2022/07/10 05:32:30;;;;;;;6.60;4.88;;;15.70;99.90;;;;;;4352581;28;22439;-57
2022/07/10 05:34:59;;;;;;;7.35;4.32;;;15.70;99.90;;;;;;4972466;28;20194;-56
2022/07/10 05:37:25;;;;;;;8.60;4.30;;;15.70;99.90;;;;;;4972345;28;20222;-56
2022/07/10 05:39:51;;;;;;;7.32;5.00;;;15.70;99.90;;;;;;4972339;28;20187;-56
2022/07/10 05:42:17;;;;;;;9.10;5.10;;;15.60;99.90;;;;;;4972390;28;20190;-57
2022/07/10 05:44:43;;;;;;;7.85;5.53;;;15.60;99.90;;;;;;4972203;28;20187;-55
2022/07/10 05:47:09;;;;;;;8.68;6.07;;;15.70;99.90;;;;;;4972309;28;20231;-56
2022/07/10 05:49:34;;;;;;;10.07;6.38;;;15.70;99.90;;;;;;4972385;28;20658;-56
2022/07/10 05:52:00;;;;;;;12.77;7.88;;;15.80;99.90;;;;;;4972297;28;20180;-57
2022/07/10 05:54:26;;;;;;;13.73;9.10;;;15.80;99.90;;;;;;4972328;28;20172;-56
2022/07/10 05:56:52;;;;;;;11.18;8.65;;;15.90;99.90;;;;;;4972290;28;20579;-56
2022/07/10 05:59:17;;;;;;;15.75;8.73;;;15.90;99.90;;;;;;4972053;28;20211;-56
2022/07/10 06:01:43;;;;;;;13.32;9.85;;;15.90;99.90;;;;;;4972325;28;20271;-56
2022/07/10 06:04:09;;;;;;;13.30;9.77;;;15.90;99.90;;;;;;4972220;28;20167;-56
2022/07/10 06:09:11;;;;;;;12.43;9.40;;;15.90;99.90;;;;;;5021528;23;20714;-57
2022/07/10 06:11:36;;;;;;;15.70;10.55;;;16.00;99.90;;;;;;4952972;28;20182;-57
2022/07/10 06:14:03;;;;;;;13.32;9.77;;;16.00;99.90;;;;;;4956465;28;20252;-57
2022/07/10 06:16:28;;;;;;;14.45;9.68;;;16.10;99.90;;;;;;4956783;28;20227;-57
2022/07/10 06:18:54;;;;;;;14.25;10.52;;;16.10;99.90;;;;;;4956735;28;20209;-58
2022/07/10 06:21:22;;;;;;;14.23;9.57;;;16.10;99.90;;;;;;4956876;28;20172;-57
2022/07/10 06:23:48;;;;;;;11.85;9.55;;;16.10;99.90;;;;;;4956758;28;20196;-56
2022/07/10 06:26:14;;;;;;;13.93;9.48;;;16.20;99.90;;;;;;4956593;28;20177;-56
2022/07/10 06:28:40;;;;;;;13.77;9.95;;;16.10;99.90;;;;;;4956630;28;20183;-56
2022/07/10 06:31:06;;;;;;;11.98;9.07;;;16.10;99.90;;;;;;4956633;28;20182;-57
2022/07/10 06:33:32;;;;;;;12.85;10.07;;;16.30;99.90;;;;;;4956546;28;20540;-56
2022/07/10 06:35:58;;;;;;;14.35;10.00;;;16.30;99.90;;;;;;4956463;28;20165;-58
2022/07/10 06:38:24;;;;;;;13.38;10.57;;;16.30;99.90;;;;;;4956442;28;20571;-57
2022/07/10 06:40:51;;;;;;;12.73;10.02;;;16.30;99.90;;;;;;4956363;28;20173;-57
2022/07/10 06:43:17;;;;;;;11.27;9.38;;;16.40;99.90;;;;;;4956278;28;20209;-57
2022/07/10 06:45:43;;;;;;;13.35;10.05;;;16.40;99.90;;;;;;4956099;28;20678;-57
2022/07/10 06:48:10;;;;;;;12.75;9.90;;;16.40;99.90;;;;;;4956301;28;20172;-57
2022/07/10 06:50:36;;;;;;;13.35;10.60;;;16.40;99.90;;;;;;4956253;28;20661;-57
2022/07/10 06:53:03;;;;;;;13.43;9.98;;;16.40;99.90;;;;;;4956178;28;20177;-57
2022/07/10 06:55:29;;;;;;;12.45;9.32;;;16.50;99.90;;;;;;4956082;28;20173;-57
2022/07/10 06:57:56;;;;;;;12.48;9.82;;;16.50;99.90;;;;;;4955839;28;20239;-59
2022/07/10 07:00:22;;;;;;;13.55;10.95;;;16.60;99.90;;;;;;4956021;28;20176;-57
2022/07/10 07:02:48;;;;;;;13.60;11.13;;;16.60;99.90;;;;;;4956066;28;20259;-57
2022/07/10 07:05:14;;;;;;;12.63;10.40;;;16.60;99.90;;;;;;4956020;28;20691;-58
2022/07/10 07:07:40;;;;;;;15.20;10.52;;;16.60;99.90;;;;;;4955854;28;20698;-57
2022/07/10 07:10:07;;;;;;;12.48;9.73;;;16.60;99.90;;;;;;4954414;29;20232;-57
2022/07/10 07:12:33;;;;;;;12.18;9.70;;;16.70;99.90;;;;;;4955851;28;20176;-56
2022/07/10 07:14:59;;;;;;;10.70;9.55;;;16.80;99.90;;;;;;4955854;28;20173;-57
2022/07/10 07:17:33;;;;;;;13.27;9.93;;;16.90;99.90;;;;;;4955716;28;20657;-57
2022/07/10 07:25:28;;;;;;;12.43;9.85;;;17.00;99.90;;;;;;4954339;28;20195;-57
2022/07/10 07:27:54;;;;;;;13.93;9.98;;;17.00;99.90;;;;;;4955609;28;20651;-57
2022/07/10 07:30:20;;;;;;;13.88;9.63;;;17.00;99.90;;;;;;4954132;29;20687;-56
2022/07/10 07:32:50;;;;;;;13.45;9.13;;;17.20;99.90;;;;;;4955400;28;20181;-57
2022/07/10 07:35:16;;;;;;;12.48;9.63;;;17.30;99.90;;;;;;4955333;28;20183;-58
2022/07/10 07:37:43;;;;;;;16.27;9.77;;;17.20;99.90;;;;;;4955476;28;20746;-56
2022/07/10 07:40:14;;;;;;;12.15;8.82;;;17.40;99.90;;;;;;4955268;28;20173;-57
2022/07/10 07:42:41;;;;;;;11.07;8.95;;;17.50;99.90;;;;;;4955190;28;20173;-57
2022/07/10 07:45:08;;;;;;;10.55;8.35;;;17.70;99.90;;;;;;4955284;29;20255;-57
2022/07/10 07:47:48;;;;;;;10.45;8.55;;;17.90;99.90;;;;;;4955032;28;20231;-57
2022/07/10 07:50:15;;;;;;;10.90;8.05;;;17.70;99.90;;;;;;4954985;28;20551;-57
2022/07/10 07:52:41;;;;;;;9.63;7.63;;;17.70;99.90;;;;;;4954951;28;20644;-57
2022/07/10 07:55:08;;;;;;;8.60;7.55;;;17.90;99.90;;;;;;4954842;28;20191;-57
2022/07/10 07:57:34;;;;;;;8.05;7.18;;;17.90;99.90;;;;;;4954777;28;20180;-58
2022/07/10 08:00:00;;;;;;;9.02;7.20;;;18.00;99.90;;;;;;4954798;28;20176;-57
2022/07/10 08:02:27;;;;;;;10.23;8.07;;;18.10;99.90;;;;;;4954894;28;20179;-56
2022/07/10 08:04:53;;;;;;;10.73;7.88;;;18.00;99.90;;;;;;4953742;29;20183;-56
2022/07/10 08:07:19;;;;;;;9.45;7.22;;;18.00;99.90;;;;;;4954884;28;20180;-57
2022/07/10 08:09:44;;;;;;;10.23;7.50;;;18.00;99.90;;;;;;4954612;28;20686;-57
2022/07/10 08:12:10;;;;;;;10.90;7.82;;;18.10;99.90;;;;;;4954485;28;20177;-57
2022/07/10 08:14:36;;;;;;;9.80;7.68;;;18.10;99.90;;;;;;4954540;28;20187;-57
2022/07/10 08:17:02;;;;;;;9.00;7.32;;;18.00;99.90;;;;;;4954564;28;20200;-57
2022/07/10 08:19:28;;;;;;;10.00;7.70;;;18.20;99.90;;;;;;4954375;28;20217;-56
2022/07/10 08:21:54;;;;;;;9.98;7.35;;;18.30;99.90;;;;;;4954453;28;20169;-57
2022/07/10 08:24:19;;;;;;;9.25;6.95;;;18.20;99.90;;;;;;4954431;28;20631;-56
2022/07/10 08:26:45;;;;;;;9.82;6.55;;;18.40;99.90;;;;;;4954438;28;20251;-56
2022/07/10 08:29:11;;;;;;;6.68;5.57;;;18.60;99.90;;;;;;4954461;28;20184;-56
2022/07/10 08:31:37;;;;;;;11.90;6.85;;;18.70;99.90;;;;;;4954230;28;20660;-56
2022/07/10 08:34:02;;;;;;;8.40;6.40;;;18.70;99.90;;;;;;4954354;28;20196;-57
2022/07/10 08:36:28;;;;;;;9.10;5.90;;;19.00;99.90;;;;;;4954100;28;20176;-56
2022/07/10 08:38:54;;;;;;;7.25;5.75;;;19.20;99.90;;;;;;4954235;28;20203;-57
2022/07/10 08:41:25;;;;;;;9.45;5.90;;;19.50;99.90;;;;;;4954037;28;20267;-57
2022/07/10 08:43:51;;;;;;;11.15;5.32;;;19.70;99.90;;;;;;4954012;28;20232;-57
2022/07/10 08:46:18;;;;;;;9.90;6.30;;;20.10;99.90;;;;;;4954601;28;20573;-56
2022/07/10 08:48:48;;;;;;;8.70;5.60;;;20.20;99.90;;;;;;4953979;28;20181;-56
2022/07/10 08:51:34;;;;;;;7.40;5.85;;;19.70;99.90;;;;;;4952818;29;20181;-56
2022/07/10 08:54:01;;;;;;;7.75;5.18;;;20.30;99.90;;;;;;4953898;28;20172;-56
2022/07/10 08:56:27;;;;;;;5.90;4.40;;;20.80;99.90;;;;;;4953806;28;20591;-57
2022/07/10 08:58:54;;;;;;;6.85;4.43;;;21.20;99.90;;;;;;4953835;28;20204;-57
2022/07/10 09:01:23;;;;;;;8.60;4.53;;;21.70;99.90;;;;;;4953832;28;20682;-57
2022/07/10 09:03:52;;;;;;;11.45;4.75;;;22.10;99.90;;;;;;4953890;28;20176;-57
2022/07/10 09:06:18;;;;;;;6.95;4.90;;;22.30;99.90;;;;;;4953766;28;20183;-57
2022/07/10 09:08:58;;;;;;;7.03;4.70;;;22.60;99.90;;;;;;4953565;28;20274;-57
2022/07/10 09:11:25;;;;;;;8.85;6.28;;;22.70;99.90;;;;;;4953546;28;20175;-57
2022/07/10 09:14:07;;;;;;;8.20;5.13;;;22.60;99.90;;;;;;4953540;28;20279;-57
2022/07/10 09:16:35;;;;;;;7.47;4.97;;;22.00;99.90;;;;;;4953578;28;20176;-57
2022/07/10 09:19:21;;;;;;;12.30;5.60;;;22.60;99.90;;;;;;4953491;28;20216;-57
2022/07/10 09:21:49;;;;;;;9.10;5.18;;;23.10;99.90;;;;;;4953450;28;20165;-56
2022/07/10 09:24:19;;;;;;;8.77;5.45;;;23.40;99.90;;;;;;4953334;28;20177;-56
2022/07/10 09:26:59;;;;;;;8.85;4.43;;;23.40;99.90;;;;;;4953191;28;20177;-57
2022/07/10 09:29:25;;;;;;;7.40;4.82;;;23.50;99.90;;;;;;4953241;28;20172;-57
2022/07/10 09:31:53;;;;;;;9.57;4.82;;;23.20;99.90;;;;;;4953300;28;20663;-56
2022/07/10 09:34:45;;;;;;;5.93;4.38;;;23.20;99.90;;;;;;4953349;28;20175;-57
2022/07/10 09:37:21;;;;;;;8.00;3.97;;;23.70;99.90;;;;;;4953358;28;20168;-58
2022/07/10 09:39:55;;;;;;;6.65;4.22;;;24.30;99.90;;;;;;4953179;28;20211;-60
2022/07/10 09:42:37;;;;;;;7.72;4.53;;;24.50;99.90;;;;;;4953190;29;20285;-57
2022/07/10 09:45:18;;;;;;;6.43;4.05;;;24.40;99.90;;;;;;4953181;28;20519;-57
2022/07/10 09:47:58;;;;;;;5.57;4.20;;;24.10;99.90;;;;;;4952784;28;20184;-57
2022/07/10 09:50:29;;;;;;;8.05;4.45;;;24.40;99.90;;;;;;4953102;28;20203;-57
2022/07/10 09:53:00;;;;;;;5.25;3.95;;;24.40;99.90;;;;;;4953250;28;20172;-57
2022/07/10 09:55:29;;;;;;;6.15;4.15;;;24.60;99.90;;;;;;4952483;28;20292;-58
2022/07/10 09:57:57;;;;;;;6.50;4.13;;;24.70;99.90;;;;;;4952791;28;20247;-58
2022/07/10 10:00:26;;;;;;;8.07;4.20;;;24.30;99.90;;;;;;4953030;28;20247;-56
2022/07/10 10:03:11;;;;;;;4.43;3.80;;;24.60;99.90;;;;;;4952743;28;20179;-56
2022/07/10 10:05:43;;;;;;;6.75;3.50;;;25.00;99.90;;;;;;4952969;28;20185;-56
2022/07/10 10:08:27;;;;;;;5.55;3.70;;;24.50;99.90;;;;;;4952219;28;20180;-56
2022/07/10 10:10:56;;;;;;;6.22;3.50;;;24.70;99.90;;;;;;4952748;28;20647;-57
2022/07/10 10:13:27;;;;;;;5.88;3.60;;;24.90;99.90;;;;;;4952878;28;20169;-56
2022/07/10 10:15:54;;;;;;;4.35;3.00;;;25.20;99.90;;;;;;4952726;28;20184;-57
2022/07/10 10:18:23;;;;;;;5.45;3.13;;;25.50;99.90;;;;;;4952633;28;20216;-57
2022/07/10 10:20:51;;;;;;;6.00;3.72;;;26.10;99.90;;;;;;4952873;28;20181;-57
2022/07/10 10:23:22;;;;;;;4.50;3.47;;;25.90;99.90;;;;;;4952670;28;20173;-57
2022/07/10 10:25:53;;;;;;;4.47;3.15;;;25.80;99.90;;;;;;4952673;28;20198;-57
2022/07/10 10:28:23;;;;;;;4.07;3.10;;;26.20;99.90;;;;;;4952469;28;20185;-57
2022/07/10 10:31:00;;;;;;;5.15;3.50;;;26.30;99.90;;;;;;4952746;28;20172;-57
2022/07/10 10:33:37;;;;;;;6.85;3.40;;;25.80;99.90;;;;;;4952753;28;20203;-58
2022/07/10 10:36:05;;;;;;;6.72;3.55;;;26.50;99.90;;;;;;4952666;28;20177;-57
2022/07/10 10:38:54;;;;;;;4.60;3.15;;;26.70;99.90;;;;;;4952603;28;20683;-57
2022/07/10 10:41:28;;;;;;;8.90;2.67;;;26.40;99.90;;;;;;4952851;28;20173;-57
2022/07/10 10:44:10;;;;;;;3.25;2.80;;;27.20;99.90;;;;;;4952679;28;20259;-57
2022/07/10 10:47:02;;;;;;;3.58;2.80;;;26.80;99.90;;;;;;4952649;28;20223;-58
2022/07/10 10:49:51;;;;;;;4.75;2.83;;;27.40;99.90;;;;;;4952768;28;20184;-57
2022/07/10 10:52:17;;;;;;;3.35;2.45;;;27.70;99.90;;;;;;4952511;28;20187;-57
2022/07/10 10:54:59;;;;;;;4.70;2.90;;;27.90;99.90;;;;;;4952555;28;20844;-57
2022/07/10 10:57:31;;;;;;;3.45;2.78;;;28.00;99.90;;;;;;4952490;28;20176;-57
2022/07/10 10:59:59;;;;;;;4.50;3.42;;;27.80;99.90;;;;;;4955405;28;20299;-57
2022/07/10 11:02:40;;;;;;;7.68;4.15;;;28.10;99.90;;;;;;4956050;28;20292;-57
2022/07/10 11:05:18;;;;;;;6.97;4.40;;;28.10;99.90;;;;;;4955895;28;20247;-58
2022/07/10 11:08:05;;;;;;;4.78;4.07;;;28.30;99.90;;;;;;4956128;28;20678;-57
2022/07/10 11:10:33;;;;;;;4.68;3.80;;;28.20;99.90;;;;;;4955577;28;20224;-57
2022/07/10 11:13:13;;;;;;;5.82;4.05;;;28.00;99.90;;;;;;4955572;28;20672;-56
2022/07/10 11:15:42;;;;;;;4.25;3.85;;;28.60;99.90;;;;;;4955632;28;20169;-57
2022/07/10 11:18:13;;;;;;;6.78;4.20;;;29.00;99.90;;;;;;4955271;28;20204;-56
2022/07/10 11:20:50;;;;;;;5.82;4.55;;;29.20;99.90;;;;;;4955545;28;20670;-57
2022/07/10 11:23:53;;;;;;;6.07;4.50;;;29.60;99.90;;;;;;4955428;28;20243;-57
2022/07/10 11:26:53;;;;;;;7.32;4.85;;;29.70;99.90;;;;;;4955420;29;20202;-57
2022/07/10 11:29:19;;;;;;;4.88;4.07;;;29.80;99.90;;;;;;4955293;28;20176;-57
2022/07/10 11:31:53;;;;;;;10.10;4.22;;;29.90;99.90;;;;;;4955469;28;20227;-56
2022/07/10 11:34:19;;;;;;;6.93;4.43;;;30.30;99.90;;;;;;4955311;28;20176;-57
2022/07/10 11:37:31;;;;;;;5.65;3.70;;;30.70;99.90;;;;;;4955182;28;20272;-57
2022/07/10 11:40:11;;;;;;;3.70;3.35;;;30.70;99.90;;;;;;4954977;29;20216;-56
2022/07/10 11:42:54;;;;;;;5.03;4.05;;;30.80;99.90;;;;;;4955302;28;20176;-57
2022/07/10 11:45:27;;;;;;;6.80;3.75;;;30.60;99.90;;;;;;4955170;28;20208;-57
2022/07/10 11:47:53;;;;;;;3.60;3.30;;;30.40;99.90;;;;;;4955040;28;20184;-56
2022/07/10 11:50:19;;;;;;;4.93;3.65;;;29.40;99.90;;;;;;4954994;28;20183;-57
2022/07/10 11:52:46;;;;;;;4.10;3.20;;;29.70;99.90;;;;;;4955064;28;20264;-57
2022/07/10 11:55:20;;;;;;;6.75;3.63;;;30.30;99.90;;;;;;4955129;28;20208;-57
2022/07/10 11:57:48;;;;;;;3.50;3.20;;;30.30;99.90;;;;;;4955377;28;20224;-57
2022/07/10 12:00:23;;;;;;;5.82;3.35;;;30.20;99.90;;;;;;4954859;28;20188;-57
2022/07/10 12:02:50;;;;;;;5.97;3.55;;;30.00;99.90;;;;;;4954778;28;20176;-57
2022/07/10 12:05:37;;;;;;;5.40;3.17;;;29.80;99.90;;;;;;4954751;28;20651;-57
2022/07/10 12:08:04;;;;;;;4.88;2.90;;;30.00;99.90;;;;;;4954599;28;20315;-57
2022/07/10 12:10:32;;;;;;;6.85;3.10;;;30.40;99.90;;;;;;4954117;28;20560;-57
2022/07/10 12:13:11;;;;;;;5.80;2.75;;;30.80;99.90;;;;;;4954676;28;20169;-57
2022/07/10 12:15:38;;;;;;;4.18;3.00;;;31.10;99.90;;;;;;4954650;28;20263;-56
2022/07/10 12:18:06;;;;;;;3.45;2.60;;;32.10;99.90;;;;;;4954506;28;20207;-56
2022/07/10 12:20:32;;;;;;;2.55;2.13;;;32.30;99.90;;;;;;4954517;28;20180;-57
2022/07/10 12:22:59;;;;;;;3.83;2.42;;;32.30;99.90;;;;;;4954449;28;20271;-57
2022/07/10 12:25:25;;;;;;;2.40;2.13;;;32.60;99.90;;;;;;4954354;28;20223;-57
2022/07/10 12:28:00;;;;;;;3.60;2.00;;;32.60;99.90;;;;;;4954472;28;20529;-57
2022/07/10 12:30:46;;;;;;;2.60;2.10;;;32.80;99.90;;;;;;4954118;28;20172;-56
2022/07/10 12:33:23;;;;;;;4.50;2.17;;;32.20;99.90;;;;;;4953982;28;20227;-56
2022/07/10 12:35:54;;;;;;;3.35;2.30;;;31.50;99.90;;;;;;4954194;28;20244;-57
2022/07/10 12:38:21;;;;;;;4.15;2.25;;;31.30;99.90;;;;;;4953916;28;20710;-57
2022/07/10 12:40:48;;;;;;;2.67;2.40;;;30.90;99.90;;;;;;4954076;28;20169;-56
2022/07/10 12:43:27;;;;;;;3.65;2.30;;;30.30;99.90;;;;;;4953867;28;20248;-57
2022/07/10 12:46:23;;;;;;;1.95;1.80;;;30.60;99.90;;;;;;4953979;28;20185;-57
2022/07/10 12:49:03;;;;;;;3.13;2.22;;;31.30;99.90;;;;;;4949507;29;20200;-57
2022/07/10 12:51:33;;;;;;;3.60;2.13;;;32.40;99.90;;;;;;4953715;28;20183;-57
2022/07/10 12:54:00;;;;;;;2.03;1.83;;;32.70;99.90;;;;;;4953800;28;20627;-57
2022/07/10 12:56:29;;;;;;;5.88;1.85;;;33.10;99.90;;;;;;4954135;28;20208;-57
2022/07/10 12:58:55;;;;;;;3.78;2.60;;;33.50;99.90;;;;;;4953697;28;20266;-57
2022/07/10 13:01:21;;;;;;;5.50;2.42;;;33.20;99.90;;;;;;4953729;28;20173;-57
2022/07/10 13:03:47;;;;;;;3.72;2.38;;;33.00;99.90;;;;;;4953543;28;20685;-58